Time;durP1;ratioP1;P1;durP2;ratioP2;P2;SDS_P1;SDS_P2;PMS_P1;PMS_P2;Temp;Humidity;BMP_temperature;BMP_pressure;BME280_temperature;BME280_humidity;BME280_pressure;Samples;Min_cycle;Max_cycle;Signal;HPM_P1;HPM_P2
2023/12/09 00:00:48;;;;;;;7.07;5.78;;;7.60;99.90;;;;;;5033135;28;20041;-65
2023/12/09 00:03:14;;;;;;;7.53;6.35;;;7.60;99.90;;;;;;5033378;28;20120;-66
2023/12/09 00:05:39;;;;;;;8.23;6.53;;;7.50;99.90;;;;;;5033417;28;20049;-65
2023/12/09 00:08:05;;;;;;;8.57;5.82;;;7.60;99.90;;;;;;5033159;28;20150;-65
2023/12/09 00:10:31;;;;;;;8.13;5.63;;;7.70;99.90;;;;;;5033016;28;20041;-65
2023/12/09 00:12:56;;;;;;;7.38;6.47;;;7.70;99.90;;;;;;5033256;28;20151;-65
2023/12/09 00:15:22;;;;;;;5.75;5.13;;;7.70;99.90;;;;;;5031660;28;20034;-65
2023/12/09 00:17:48;;;;;;;9.18;6.22;;;7.70;99.90;;;;;;5031612;28;20050;-65
2023/12/09 00:20:13;;;;;;;6.97;6.07;;;7.70;99.90;;;;;;5033165;28;20516;-65
2023/12/09 00:22:40;;;;;;;7.93;5.72;;;7.70;99.90;;;;;;5032701;28;20100;-65
2023/12/09 00:25:06;;;;;;;6.57;5.25;;;7.70;99.90;;;;;;5033144;28;20401;-64
2023/12/09 00:27:32;;;;;;;11.10;6.10;;;7.70;99.90;;;;;;5032646;28;20045;-64
2023/12/09 00:29:58;;;;;;;9.80;6.20;;;7.70;99.90;;;;;;5032969;28;20038;-64
2023/12/09 00:32:24;;;;;;;8.57;5.82;;;7.70;99.90;;;;;;5031342;28;20049;-64
2023/12/09 00:34:50;;;;;;;8.75;5.32;;;8.00;99.90;;;;;;5032670;28;20458;-64
2023/12/09 00:37:15;;;;;;;6.65;4.82;;;7.70;99.90;;;;;;5031349;28;20091;-64
2023/12/09 00:39:41;;;;;;;6.75;5.22;;;7.70;99.90;;;;;;5031560;28;20512;-64
2023/12/09 00:42:07;;;;;;;7.95;5.45;;;7.70;99.90;;;;;;5032693;28;20040;-64
2023/12/09 00:44:33;;;;;;;6.78;5.90;;;7.60;99.90;;;;;;5032905;28;20042;-64
2023/12/09 00:46:58;;;;;;;6.80;5.43;;;7.70;99.90;;;;;;5032691;28;20072;-64
2023/12/09 00:49:24;;;;;;;7.95;5.63;;;7.70;99.90;;;;;;5032565;28;20037;-64
2023/12/09 00:51:49;;;;;;;7.10;5.78;;;7.70;99.90;;;;;;5032650;28;20073;-64
2023/12/09 00:54:15;;;;;;;7.28;5.30;;;7.80;99.90;;;;;;5014535;28;20045;-64
2023/12/09 00:56:41;;;;;;;10.10;5.60;;;7.70;99.90;;;;;;5032572;28;20047;-64
2023/12/09 00:59:07;;;;;;;6.85;5.72;;;7.70;99.90;;;;;;5032163;28;20041;-64
2023/12/09 01:01:33;;;;;;;7.60;6.15;;;7.70;99.90;;;;;;5032423;28;20492;-64
2023/12/09 01:04:00;;;;;;;7.20;5.55;;;7.80;99.90;;;;;;5032163;28;20131;-65
2023/12/09 01:06:30;;;;;;;6.63;5.00;;;7.70;99.90;;;;;;5032576;28;20505;-65
2023/12/09 01:08:56;;;;;;;6.38;4.95;;;7.80;99.90;;;;;;5032385;28;20044;-65
2023/12/09 01:11:21;;;;;;;6.50;5.18;;;7.80;99.90;;;;;;5032343;28;20063;-65
2023/12/09 01:13:47;;;;;;;7.22;5.57;;;7.70;99.90;;;;;;5032198;28;20037;-65
2023/12/09 01:16:12;;;;;;;6.85;5.00;;;7.80;99.90;;;;;;5032181;28;20116;-65
2023/12/09 01:18:38;;;;;;;6.28;5.10;;;8.00;99.90;;;;;;5032287;28;20401;-65
2023/12/09 01:21:04;;;;;;;6.75;4.93;;;7.80;99.90;;;;;;5032044;28;20095;-65
2023/12/09 01:23:30;;;;;;;6.65;5.80;;;7.70;99.90;;;;;;5031817;28;20040;-65
2023/12/09 01:25:56;;;;;;;6.28;5.10;;;7.70;99.90;;;;;;5032223;28;20038;-65
2023/12/09 01:28:21;;;;;;;9.60;5.13;;;7.70;99.90;;;;;;5032111;28;20037;-65
2023/12/09 01:30:47;;;;;;;7.50;4.90;;;7.70;99.90;;;;;;5032136;28;20083;-65
2023/12/09 01:33:12;;;;;;;8.43;5.00;;;7.70;99.90;;;;;;5031752;28;20045;-65
2023/12/09 01:35:38;;;;;;;4.85;4.30;;;7.70;99.90;;;;;;5031824;28;20053;-64
2023/12/09 01:38:04;;;;;;;10.07;5.78;;;7.80;99.90;;;;;;5032109;28;20120;-64
2023/12/09 01:40:29;;;;;;;7.35;5.07;;;7.70;99.90;;;;;;5032056;28;20033;-64
2023/12/09 01:42:55;;;;;;;7.30;5.35;;;7.70;99.90;;;;;;5031930;28;20112;-65
2023/12/09 01:45:21;;;;;;;7.13;4.88;;;7.70;99.90;;;;;;5031965;28;20041;-65
2023/12/09 01:47:48;;;;;;;6.95;5.38;;;7.70;99.90;;;;;;5032008;28;20095;-65
2023/12/09 01:50:15;;;;;;;7.32;4.90;;;7.70;99.90;;;;;;5031964;28;20413;-66
2023/12/09 01:52:42;;;;;;;7.63;6.07;;;7.70;99.90;;;;;;5032007;28;20142;-65
2023/12/09 01:55:13;;;;;;;6.72;4.97;;;7.70;99.90;;;;;;5031611;28;20053;-65
2023/12/09 01:57:39;;;;;;;6.70;5.37;;;7.80;99.90;;;;;;5031962;28;20053;-65
2023/12/09 02:00:06;;;;;;;7.60;5.38;;;7.70;99.90;;;;;;5031814;28;20276;-64
2023/12/09 02:02:32;;;;;;;9.82;5.05;;;7.70;99.90;;;;;;5034686;28;20095;-64
2023/12/09 02:04:59;;;;;;;7.38;5.60;;;7.80;99.90;;;;;;5035351;28;20045;-64
2023/12/09 02:07:24;;;;;;;5.30;4.63;;;7.70;99.90;;;;;;5035630;28;20041;-64
2023/12/09 02:09:50;;;;;;;7.28;5.43;;;7.70;99.90;;;;;;5035548;28;20474;-64
2023/12/09 02:12:30;;;;;;;6.22;5.10;;;7.70;99.90;;;;;;5035181;28;20551;-64
2023/12/09 02:15:17;;;;;;;5.97;4.20;;;7.70;99.90;;;;;;5035542;28;20473;-64
2023/12/09 02:17:52;;;;;;;5.05;4.50;;;7.70;99.90;;;;;;5035207;28;20045;-64
2023/12/09 02:20:18;;;;;;;5.80;4.55;;;7.80;99.90;;;;;;5035479;28;20128;-64
2023/12/09 02:22:43;;;;;;;5.07;4.57;;;7.80;99.90;;;;;;5035314;28;20128;-64
2023/12/09 02:25:09;;;;;;;6.55;4.47;;;7.70;99.90;;;;;;5035309;28;20037;-65
2023/12/09 02:27:47;;;;;;;7.75;4.60;;;7.80;99.90;;;;;;5035024;28;20056;-65
2023/12/09 02:30:22;;;;;;;6.30;4.65;;;7.80;99.90;;;;;;5035073;28;20045;-65
2023/12/09 02:32:49;;;;;;;5.53;4.63;;;7.70;99.90;;;;;;5035148;28;20437;-65
2023/12/09 02:35:16;;;;;;;7.18;4.57;;;7.80;99.90;;;;;;5034978;28;20556;-65
2023/12/09 02:37:43;;;;;;;6.00;4.65;;;7.80;99.90;;;;;;5035141;28;20128;-65
2023/12/09 02:40:10;;;;;;;5.65;4.25;;;7.70;99.90;;;;;;5035091;28;20041;-65
2023/12/09 02:42:39;;;;;;;7.10;5.22;;;7.70;99.90;;;;;;5034903;28;20077;-65
2023/12/09 02:45:06;;;;;;;7.72;4.95;;;7.80;99.90;;;;;;5035064;28;20105;-65
2023/12/09 02:47:32;;;;;;;6.80;4.93;;;8.00;99.90;;;;;;5034968;28;20042;-65
2023/12/09 02:49:58;;;;;;;6.57;4.50;;;7.80;99.90;;;;;;5033679;28;20052;-65
2023/12/09 02:52:23;;;;;;;5.13;4.45;;;7.80;99.90;;;;;;5034759;28;20128;-65
2023/12/09 02:54:49;;;;;;;6.53;5.07;;;8.30;99.90;;;;;;5034812;28;20041;-65
2023/12/09 02:57:15;;;;;;;7.78;4.93;;;7.80;99.90;;;;;;5034729;28;20041;-65
2023/12/09 02:59:40;;;;;;;6.55;4.82;;;7.80;99.90;;;;;;5034683;28;20071;-65
2023/12/09 03:02:06;;;;;;;5.72;4.47;;;7.80;99.90;;;;;;5034256;28;20136;-65
2023/12/09 03:04:32;;;;;;;6.18;4.75;;;7.80;99.90;;;;;;5034308;28;20041;-65
2023/12/09 03:06:57;;;;;;;6.10;5.10;;;7.80;99.90;;;;;;5034298;28;20132;-65
2023/12/09 03:09:23;;;;;;;5.25;4.38;;;8.00;99.90;;;;;;5034494;28;20389;-65
2023/12/09 03:11:49;;;;;;;4.57;3.63;;;7.80;99.90;;;;;;5032701;28;20056;-65
2023/12/09 03:14:14;;;;;;;5.78;4.43;;;7.80;99.90;;;;;;5033278;28;20504;-65
2023/12/09 03:16:40;;;;;;;7.32;4.55;;;7.80;99.90;;;;;;5034360;28;20037;-65
2023/12/09 03:19:05;;;;;;;6.13;4.45;;;7.90;99.90;;;;;;5034278;28;20080;-65
2023/12/09 03:21:31;;;;;;;5.93;4.45;;;7.80;99.90;;;;;;5034114;28;20037;-66
2023/12/09 03:23:57;;;;;;;7.13;4.72;;;7.80;99.90;;;;;;5033948;28;20037;-65
2023/12/09 03:26:25;;;;;;;6.95;4.13;;;8.00;99.90;;;;;;5034173;28;20041;-65
2023/12/09 03:28:51;;;;;;;11.25;4.55;;;7.70;99.90;;;;;;5034192;28;20041;-65
2023/12/09 03:31:17;;;;;;;5.25;4.13;;;7.80;99.90;;;;;;5034100;28;20045;-65
2023/12/09 03:33:43;;;;;;;5.05;4.25;;;7.80;99.90;;;;;;5033685;28;20124;-65
2023/12/09 03:36:14;;;;;;;5.95;4.47;;;7.80;99.90;;;;;;5033811;28;20091;-65
2023/12/09 03:38:40;;;;;;;5.05;3.65;;;7.80;99.90;;;;;;5032660;28;20079;-65
2023/12/09 03:41:07;;;;;;;6.80;5.00;;;7.80;99.90;;;;;;5033958;28;20417;-65
2023/12/09 03:43:33;;;;;;;3.65;3.13;;;8.00;99.90;;;;;;5033803;28;20048;-65
2023/12/09 03:45:59;;;;;;;5.45;3.97;;;7.70;99.90;;;;;;5033870;28;20072;-65
2023/12/09 03:48:25;;;;;;;4.10;3.70;;;7.70;99.90;;;;;;5032221;28;20041;-65
2023/12/09 03:50:51;;;;;;;7.30;4.18;;;7.70;99.90;;;;;;5033713;28;20436;-65
2023/12/09 03:53:17;;;;;;;5.55;3.88;;;7.70;99.90;;;;;;5033683;28;20041;-65
2023/12/09 03:55:43;;;;;;;4.57;3.80;;;7.70;99.90;;;;;;5033651;28;20041;-65
2023/12/09 03:58:08;;;;;;;3.70;3.25;;;7.70;99.90;;;;;;5033337;28;20041;-65
2023/12/09 04:00:35;;;;;;;4.55;3.90;;;7.70;99.90;;;;;;5033442;28;20045;-64
2023/12/09 04:03:00;;;;;;;6.13;3.80;;;7.70;99.90;;;;;;5033191;28;20045;-64
2023/12/09 04:05:26;;;;;;;7.30;4.45;;;7.70;99.90;;;;;;5033465;28;20041;-64
2023/12/09 04:07:52;;;;;;;4.78;3.97;;;7.70;99.90;;;;;;5033182;28;20041;-64
2023/12/09 04:10:18;;;;;;;3.78;3.30;;;7.80;99.90;;;;;;5033327;28;20470;-64
2023/12/09 04:12:44;;;;;;;4.80;3.83;;;7.70;99.90;;;;;;5033247;28;20378;-64
2023/12/09 04:15:11;;;;;;;4.72;3.70;;;7.70;99.90;;;;;;5032849;28;20037;-64
2023/12/09 04:17:37;;;;;;;7.40;3.75;;;7.60;99.90;;;;;;5032956;28;20045;-64
2023/12/09 04:20:08;;;;;;;6.00;3.45;;;7.70;99.90;;;;;;5033156;28;20390;-64
2023/12/09 04:22:36;;;;;;;5.10;3.08;;;7.60;99.90;;;;;;5031559;28;20050;-64
2023/12/09 04:25:02;;;;;;;5.85;3.75;;;7.70;99.90;;;;;;5032641;28;20088;-64
2023/12/09 04:27:31;;;;;;;4.95;3.03;;;7.60;99.90;;;;;;5032716;28;20041;-64
2023/12/09 04:29:57;;;;;;;7.05;3.22;;;7.60;99.90;;;;;;5033009;28;20052;-64
2023/12/09 04:32:23;;;;;;;4.82;3.17;;;7.60;99.90;;;;;;5033023;28;20405;-64
2023/12/09 04:34:49;;;;;;;4.57;3.50;;;7.60;99.90;;;;;;5032705;28;20037;-64
2023/12/09 04:37:14;;;;;;;6.68;3.63;;;7.60;99.90;;;;;;5032593;28;20078;-65
2023/12/09 04:39:40;;;;;;;4.95;2.97;;;7.60;99.90;;;;;;5032513;28;20048;-64
2023/12/09 04:42:06;;;;;;;4.88;3.17;;;7.60;99.90;;;;;;5032715;28;20037;-66
2023/12/09 04:44:31;;;;;;;6.10;3.60;;;7.60;99.90;;;;;;5032701;28;20120;-64
2023/12/09 04:46:57;;;;;;;4.93;3.53;;;7.60;99.90;;;;;;5032534;28;20037;-64
2023/12/09 04:49:23;;;;;;;4.45;3.47;;;7.70;99.90;;;;;;5030989;28;20103;-64
2023/12/09 04:51:48;;;;;;;4.57;2.97;;;7.70;99.90;;;;;;5032706;28;20405;-64
2023/12/09 04:54:14;;;;;;;7.07;3.72;;;7.60;99.90;;;;;;5032612;28;20041;-64
2023/12/09 04:56:39;;;;;;;4.63;3.58;;;7.60;99.90;;;;;;5031206;28;20047;-64
2023/12/09 04:59:05;;;;;;;5.03;2.92;;;7.60;99.90;;;;;;5032484;28;20047;-64
2023/12/09 05:01:31;;;;;;;4.80;3.20;;;7.60;99.90;;;;;;5032038;28;20412;-64
2023/12/09 05:03:56;;;;;;;3.85;3.00;;;7.60;99.90;;;;;;5032102;28;20045;-64
2023/12/09 05:06:22;;;;;;;6.22;3.35;;;7.60;99.90;;;;;;5030808;28;20037;-64
2023/12/09 05:08:48;;;;;;;4.22;2.90;;;7.60;99.90;;;;;;5031268;28;20081;-64
2023/12/09 05:11:13;;;;;;;5.22;3.08;;;7.60;99.90;;;;;;5031976;28;20073;-65
2023/12/09 05:13:39;;;;;;;4.72;2.92;;;7.70;99.90;;;;;;5032245;28;20038;-64
2023/12/09 05:16:05;;;;;;;5.07;2.90;;;7.80;99.90;;;;;;5032237;28;20111;-64
2023/12/09 05:18:33;;;;;;;4.20;2.97;;;7.60;99.90;;;;;;5032176;28;20049;-64
2023/12/09 05:20:59;;;;;;;4.30;2.95;;;7.60;99.90;;;;;;5030677;28;20045;-64
2023/12/09 05:23:25;;;;;;;6.60;4.18;;;7.60;99.90;;;;;;5032000;28;20048;-64
2023/12/09 05:25:51;;;;;;;6.53;3.40;;;7.60;99.90;;;;;;5032153;28;20060;-64
2023/12/09 05:28:18;;;;;;;6.22;3.22;;;7.60;99.90;;;;;;5032115;28;20470;-64
2023/12/09 05:30:43;;;;;;;6.22;3.42;;;7.50;99.90;;;;;;5032147;28;20405;-64
2023/12/09 05:33:09;;;;;;;5.20;3.40;;;7.60;99.90;;;;;;5032036;28;20037;-64
2023/12/09 05:35:35;;;;;;;4.85;3.10;;;7.60;99.90;;;;;;5031815;28;20058;-64
2023/12/09 05:38:01;;;;;;;5.05;2.78;;;7.50;99.90;;;;;;5036067;28;20417;-64
2023/12/09 05:40:27;;;;;;;4.22;2.97;;;7.50;99.90;;;;;;5036148;28;20082;-64
2023/12/09 05:42:52;;;;;;;5.72;3.58;;;7.50;99.90;;;;;;5036058;28;20060;-64
2023/12/09 05:45:18;;;;;;;5.22;3.25;;;7.70;99.90;;;;;;5035713;28;20049;-64
2023/12/09 05:47:43;;;;;;;7.25;3.42;;;7.50;99.90;;;;;;5034694;28;20037;-66
2023/12/09 05:50:10;;;;;;;5.72;3.50;;;7.50;99.90;;;;;;5035737;28;20129;-64
2023/12/09 05:52:36;;;;;;;3.95;2.83;;;7.60;99.90;;;;;;5035923;28;20048;-64
2023/12/09 05:55:02;;;;;;;5.07;2.70;;;7.50;99.90;;;;;;5035605;28;20436;-64
2023/12/09 05:57:27;;;;;;;3.60;2.90;;;7.60;99.90;;;;;;5035916;28;20029;-64
2023/12/09 05:59:53;;;;;;;4.40;2.78;;;7.60;99.90;;;;;;5035818;28;20041;-64
2023/12/09 06:02:18;;;;;;;4.68;2.75;;;7.60;99.90;;;;;;5035743;28;20045;-64
2023/12/09 06:04:44;;;;;;;3.85;2.95;;;7.50;99.90;;;;;;5034150;28;20469;-64
2023/12/09 06:07:10;;;;;;;4.20;2.83;;;7.50;99.90;;;;;;5034442;28;20516;-64
2023/12/09 06:09:36;;;;;;;3.63;2.80;;;7.50;99.90;;;;;;5035708;28;20038;-64
2023/12/09 06:12:01;;;;;;;4.22;3.05;;;8.00;99.90;;;;;;5035541;28;20048;-64
2023/12/09 06:14:27;;;;;;;5.43;3.25;;;7.50;99.90;;;;;;5035458;28;20544;-65
2023/12/09 06:16:53;;;;;;;3.63;2.55;;;7.60;99.90;;;;;;5035228;28;20167;-64
2023/12/09 06:19:18;;;;;;;4.95;3.63;;;7.40;99.90;;;;;;5035596;28;20037;-65
2023/12/09 06:21:44;;;;;;;4.55;2.72;;;7.50;99.90;;;;;;5035396;28;20107;-66
2023/12/09 06:24:11;;;;;;;4.07;2.95;;;7.50;99.90;;;;;;5035392;28;20400;-65
2023/12/09 06:26:44;;;;;;;6.15;3.50;;;7.50;99.90;;;;;;5035026;28;20056;-65
2023/12/09 06:29:15;;;;;;;5.15;3.05;;;7.40;99.90;;;;;;5035124;28;20046;-65
2023/12/09 06:31:41;;;;;;;4.78;3.10;;;7.40;99.90;;;;;;5035016;28;20037;-65
2023/12/09 06:34:06;;;;;;;4.95;3.08;;;7.60;99.90;;;;;;5035026;28;20505;-65
2023/12/09 06:36:32;;;;;;;5.55;3.50;;;7.40;99.90;;;;;;5034853;28;20049;-65
2023/12/09 06:38:58;;;;;;;3.20;2.75;;;7.30;99.90;;;;;;5035179;28;20456;-65
2023/12/09 06:41:24;;;;;;;3.97;2.88;;;7.30;99.90;;;;;;5034755;28;20432;-65
2023/12/09 06:43:49;;;;;;;3.50;2.80;;;7.30;99.90;;;;;;5033531;28;20041;-65
2023/12/09 06:46:15;;;;;;;3.83;3.40;;;7.30;99.90;;;;;;5034984;28;20548;-65
2023/12/09 06:48:41;;;;;;;4.18;2.53;;;7.20;99.90;;;;;;5034589;28;20041;-65
2023/12/09 06:51:17;;;;;;;5.47;3.28;;;7.40;99.90;;;;;;5034940;28;20397;-65
2023/12/09 06:53:43;;;;;;;3.40;2.55;;;7.30;99.90;;;;;;5034852;28;20128;-65
2023/12/09 06:56:18;;;;;;;5.90;3.58;;;7.30;99.90;;;;;;5034758;28;20041;-65
2023/12/09 06:58:44;;;;;;;3.88;2.58;;;7.50;99.90;;;;;;5034767;28;20453;-65
2023/12/09 07:01:18;;;;;;;5.82;2.70;;;7.20;99.90;;;;;;5034616;28;20072;-65
2023/12/09 07:03:44;;;;;;;5.95;3.55;;;7.20;99.90;;;;;;5034551;28;20041;-65
2023/12/09 07:06:09;;;;;;;4.18;3.00;;;7.20;99.90;;;;;;5034584;28;20030;-65
2023/12/09 07:08:35;;;;;;;7.45;3.47;;;7.20;99.90;;;;;;5034255;28;20030;-66
2023/12/09 07:11:01;;;;;;;6.65;3.63;;;7.20;99.90;;;;;;5033164;28;20041;-64
2023/12/09 07:13:26;;;;;;;8.02;4.03;;;7.40;99.90;;;;;;5034359;28;20046;-64
2023/12/09 07:15:52;;;;;;;3.13;2.78;;;7.20;99.90;;;;;;5034426;28;20087;-65
2023/12/09 07:18:18;;;;;;;4.18;3.03;;;7.20;99.90;;;;;;5034060;28;20124;-64
2023/12/09 07:20:44;;;;;;;3.25;2.85;;;7.20;99.90;;;;;;5032787;28;20172;-64
2023/12/09 07:23:09;;;;;;;4.32;2.20;;;7.20;99.90;;;;;;5034172;28;20443;-64
2023/12/09 07:25:35;;;;;;;2.92;2.30;;;7.20;99.90;;;;;;5034185;28;20116;-64
2023/12/09 07:28:00;;;;;;;4.00;2.67;;;7.20;99.90;;;;;;5034255;28;20057;-64
2023/12/09 07:30:26;;;;;;;4.80;2.92;;;7.20;99.90;;;;;;5033897;28;20048;-65
2023/12/09 07:32:52;;;;;;;4.72;2.70;;;7.20;99.90;;;;;;5033760;28;20111;-64
2023/12/09 07:35:18;;;;;;;3.67;2.53;;;7.20;99.90;;;;;;5033787;28;20065;-65
2023/12/09 07:37:44;;;;;;;5.07;3.05;;;7.10;99.90;;;;;;5033988;28;20060;-65
2023/12/09 07:40:11;;;;;;;5.60;3.08;;;7.10;99.90;;;;;;5033968;28;20230;-64
2023/12/09 07:42:38;;;;;;;3.80;2.72;;;7.10;99.90;;;;;;5032552;28;20136;-68
2023/12/09 07:45:04;;;;;;;3.75;2.20;;;7.30;99.90;;;;;;5033887;28;20176;-64
2023/12/09 07:47:30;;;;;;;5.07;2.95;;;7.20;99.90;;;;;;5033811;28;20401;-64
2023/12/09 07:49:55;;;;;;;6.25;2.88;;;7.10;99.90;;;;;;5032305;28;20038;-65
2023/12/09 07:52:21;;;;;;;5.32;2.33;;;7.20;99.90;;;;;;5033673;28;20088;-64
2023/12/09 07:54:47;;;;;;;3.50;2.63;;;7.20;99.90;;;;;;5033684;28;20425;-64
2023/12/09 07:57:14;;;;;;;3.05;2.15;;;7.20;99.90;;;;;;5033602;28;20076;-64
2023/12/09 07:59:39;;;;;;;3.90;2.03;;;7.20;99.90;;;;;;5031288;28;20045;-65
2023/12/09 08:02:05;;;;;;;3.33;2.92;;;7.20;99.90;;;;;;5033054;28;20041;-65
2023/12/09 08:04:31;;;;;;;3.92;2.53;;;7.20;99.90;;;;;;5033524;28;20047;-65
2023/12/09 08:06:57;;;;;;;2.97;2.00;;;7.20;99.90;;;;;;5033333;28;20037;-65
2023/12/09 08:09:22;;;;;;;6.78;3.08;;;7.20;99.90;;;;;;5033433;28;20041;-65
2023/12/09 08:11:48;;;;;;;5.53;2.80;;;7.10;99.90;;;;;;5031786;28;20455;-65
2023/12/09 08:14:13;;;;;;;4.22;2.00;;;7.10;99.90;;;;;;5033309;28;20041;-66
2023/12/09 08:16:39;;;;;;;3.45;2.42;;;7.10;99.90;;;;;;5033283;28;20060;-66
2023/12/09 08:19:05;;;;;;;3.45;2.38;;;7.20;99.90;;;;;;5033004;28;20464;-65
2023/12/09 08:21:35;;;;;;;5.03;2.55;;;7.10;99.90;;;;;;5032828;28;20100;-65
2023/12/09 08:24:01;;;;;;;4.13;2.17;;;7.30;99.90;;;;;;5033139;28;20045;-64
2023/12/09 08:26:27;;;;;;;3.97;2.28;;;7.10;99.90;;;;;;5033078;28;20041;-64
2023/12/09 08:28:53;;;;;;;3.45;2.22;;;7.10;99.90;;;;;;5033060;28;20037;-64
2023/12/09 08:31:19;;;;;;;3.38;2.35;;;7.10;99.90;;;;;;5032957;28;20039;-65
2023/12/09 08:33:44;;;;;;;3.03;2.22;;;7.10;99.90;;;;;;5032962;28;20095;-65
2023/12/09 08:36:10;;;;;;;4.53;2.22;;;7.10;99.90;;;;;;5032628;28;20084;-65
2023/12/09 08:38:36;;;;;;;3.72;2.38;;;7.10;99.90;;;;;;5032673;28;20485;-65
2023/12/09 08:41:01;;;;;;;3.75;2.05;;;7.00;99.90;;;;;;5032843;28;20037;-67
2023/12/09 08:43:27;;;;;;;3.92;1.98;;;7.00;99.90;;;;;;5032349;28;20041;-66
2023/12/09 08:45:53;;;;;;;3.63;1.90;;;6.90;99.90;;;;;;5031279;28;20045;-65
2023/12/09 08:48:18;;;;;;;4.03;1.83;;;6.90;99.90;;;;;;5032585;28;20543;-66
2023/12/09 08:50:44;;;;;;;4.60;2.28;;;6.90;99.90;;;;;;5032358;28;20079;-69
2023/12/09 08:53:10;;;;;;;4.50;1.65;;;6.90;99.90;;;;;;5030940;28;20096;-65
2023/12/09 08:55:35;;;;;;;2.45;1.73;;;6.90;99.90;;;;;;5032185;28;20045;-68
2023/12/09 08:58:01;;;;;;;3.95;1.63;;;6.90;99.90;;;;;;5030833;28;20059;-64
2023/12/09 09:00:27;;;;;;;3.58;1.73;;;7.40;99.90;;;;;;5032409;28;20396;-65
2023/12/09 09:02:55;;;;;;;3.30;1.65;;;6.80;99.90;;;;;;5032335;28;20057;-64
2023/12/09 09:05:24;;;;;;;3.67;2.17;;;6.90;99.90;;;;;;5032411;28;20465;-65
2023/12/09 09:07:50;;;;;;;2.55;1.70;;;6.90;99.90;;;;;;5032375;28;20045;-66
2023/12/09 09:10:18;;;;;;;2.97;1.88;;;6.90;99.90;;;;;;5031966;28;20221;-65
2023/12/09 09:12:46;;;;;;;2.75;1.50;;;6.90;99.90;;;;;;5030735;28;20481;-68
2023/12/09 09:15:12;;;;;;;1.75;1.27;;;6.90;99.90;;;;;;5031874;28;20049;-65
2023/12/09 09:17:41;;;;;;;2.88;1.92;;;7.00;99.90;;;;;;5032119;28;20037;-64
2023/12/09 09:20:07;;;;;;;3.80;1.52;;;7.00;99.90;;;;;;5031834;28;20081;-64
2023/12/09 09:22:33;;;;;;;3.40;1.88;;;7.00;99.90;;;;;;5032373;28;20320;-65
2023/12/09 09:24:59;;;;;;;3.05;1.90;;;7.10;99.90;;;;;;5030912;28;20124;-64
2023/12/09 09:27:25;;;;;;;4.93;2.22;;;7.10;99.90;;;;;;5030854;28;20160;-64
2023/12/09 09:29:51;;;;;;;3.17;1.88;;;7.50;99.90;;;;;;5030520;28;20053;-67
2023/12/09 09:32:17;;;;;;;3.72;1.25;;;7.20;99.90;;;;;;5031630;28;20537;-65
2023/12/09 09:34:43;;;;;;;3.00;1.75;;;7.20;99.90;;;;;;5031695;28;20041;-65
2023/12/09 09:37:09;;;;;;;2.50;1.83;;;7.40;99.90;;;;;;5031569;28;20042;-65
2023/12/09 09:39:35;;;;;;;2.78;1.88;;;7.50;99.90;;;;;;5031512;28;20124;-65
2023/12/09 09:42:25;;;;;;;5.22;2.22;;;7.40;99.90;;;;;;5030291;28;20124;-64
2023/12/09 09:45:08;;;;;;;4.38;1.50;;;7.40;99.90;;;;;;5031888;28;20049;-64
2023/12/09 09:47:36;;;;;;;2.17;1.58;;;7.50;99.90;;;;;;5030380;28;20175;-64
2023/12/09 09:50:04;;;;;;;2.53;1.50;;;7.50;99.90;;;;;;5031783;28;20063;-64
2023/12/09 09:52:34;;;;;;;1.95;1.20;;;7.60;99.90;;;;;;5031679;28;20109;-64
2023/12/09 09:55:01;;;;;;;2.58;1.50;;;7.60;99.90;;;;;;5031805;28;20052;-66
2023/12/09 09:57:26;;;;;;;3.08;1.70;;;7.50;99.90;;;;;;5031493;28;20046;-64
2023/12/09 09:59:55;;;;;;;2.03;1.50;;;7.60;99.90;;;;;;5031420;28;20049;-64
2023/12/09 10:02:21;;;;;;;2.92;1.73;;;7.50;99.90;;;;;;5031170;28;20398;-64
2023/12/09 10:04:47;;;;;;;2.50;1.42;;;7.60;99.90;;;;;;5031621;28;20081;-65
2023/12/09 10:07:14;;;;;;;2.08;1.63;;;7.60;99.90;;;;;;5031082;28;20073;-65
2023/12/09 10:09:40;;;;;;;4.18;2.05;;;7.60;99.90;;;;;;5031595;28;20033;-65
2023/12/09 10:12:06;;;;;;;2.13;1.42;;;7.60;99.90;;;;;;5031585;28;20067;-66
2023/12/09 10:14:32;;;;;;;2.58;1.63;;;7.60;99.90;;;;;;5030242;28;20049;-66
2023/12/09 10:16:58;;;;;;;2.88;1.60;;;7.60;99.90;;;;;;5030108;28;20505;-66
2023/12/09 10:19:24;;;;;;;2.75;1.60;;;7.60;99.90;;;;;;5031427;28;20493;-66
2023/12/09 10:21:49;;;;;;;3.00;1.38;;;7.60;99.90;;;;;;5031835;28;20453;-68
2023/12/09 10:24:15;;;;;;;1.85;1.00;;;7.60;99.90;;;;;;5034106;28;20080;-66
2023/12/09 10:26:41;;;;;;;3.03;1.98;;;7.60;99.90;;;;;;5035255;28;20045;-66
2023/12/09 10:29:07;;;;;;;1.77;1.20;;;7.60;99.90;;;;;;5035358;28;20044;-66
2023/12/09 10:31:35;;;;;;;2.35;1.48;;;7.60;99.90;;;;;;5035247;28;20042;-66
2023/12/09 10:34:02;;;;;;;2.92;1.80;;;8.20;99.90;;;;;;5034943;28;20382;-66
2023/12/09 10:36:29;;;;;;;2.30;1.52;;;7.70;99.90;;;;;;5034787;28;20424;-66
2023/12/09 10:38:56;;;;;;;3.70;1.40;;;7.70;99.90;;;;;;5035218;28;20038;-66
2023/12/09 10:41:23;;;;;;;2.30;1.30;;;7.80;99.90;;;;;;5034830;28;20553;-65
2023/12/09 10:43:48;;;;;;;3.00;1.55;;;7.80;99.90;;;;;;5034908;28;20405;-66
2023/12/09 10:46:14;;;;;;;2.58;1.40;;;7.90;99.90;;;;;;5034732;28;20037;-66
2023/12/09 10:48:41;;;;;;;2.88;1.42;;;7.80;99.90;;;;;;5034862;28;20037;-65
2023/12/09 10:51:07;;;;;;;1.65;1.40;;;7.90;99.90;;;;;;5034855;28;20080;-65
2023/12/09 10:53:33;;;;;;;2.05;1.52;;;8.00;99.90;;;;;;5034836;28;20056;-65
2023/12/09 10:55:59;;;;;;;1.70;1.33;;;8.00;99.90;;;;;;5034478;28;20128;-65
2023/12/09 10:58:25;;;;;;;2.78;1.35;;;8.00;99.90;;;;;;5034476;28;20064;-66
2023/12/09 11:00:51;;;;;;;2.42;1.45;;;8.00;99.90;;;;;;5034726;28;20509;-66
2023/12/09 11:03:17;;;;;;;1.63;1.05;;;8.00;99.90;;;;;;5034548;28;20390;-66
2023/12/09 11:05:48;;;;;;;1.65;1.00;;;8.00;99.90;;;;;;5034559;28;20056;-66
2023/12/09 11:08:14;;;;;;;1.50;1.20;;;8.00;99.90;;;;;;5034650;28;20041;-73
2023/12/09 11:10:40;;;;;;;1.60;1.10;;;8.10;99.90;;;;;;5033119;28;20764;-65
2023/12/09 11:13:06;;;;;;;2.28;1.35;;;8.10;99.90;;;;;;5034090;28;20090;-65
2023/12/09 11:15:32;;;;;;;2.15;1.58;;;8.10;99.90;;;;;;5034123;28;20124;-65
2023/12/09 11:18:09;;;;;;;2.70;1.63;;;8.00;99.90;;;;;;5034371;28;20541;-67
2023/12/09 11:20:40;;;;;;;2.22;1.33;;;8.00;99.90;;;;;;5034387;28;20144;-67
2023/12/09 11:23:11;;;;;;;2.40;1.25;;;8.00;99.90;;;;;;5032633;28;20418;-66
2023/12/09 11:25:41;;;;;;;1.23;1.13;;;8.10;99.90;;;;;;5034334;28;20073;-66
2023/12/09 11:28:11;;;;;;;1.90;0.98;;;8.10;99.90;;;;;;5033911;28;20045;-65
2023/12/09 11:30:41;;;;;;;3.00;1.50;;;8.10;99.90;;;;;;5033915;28;20040;-65
2023/12/09 11:33:07;;;;;;;2.10;1.30;;;8.00;99.90;;;;;;5033721;28;20049;-65
2023/12/09 11:35:35;;;;;;;1.63;1.10;;;8.00;99.90;;;;;;5032995;28;20061;-65
2023/12/09 11:38:01;;;;;;;1.98;0.80;;;8.00;99.90;;;;;;5033712;28;20052;-66
2023/12/09 11:40:29;;;;;;;1.67;1.10;;;8.00;99.90;;;;;;5033769;28;20053;-66
2023/12/09 11:43:00;;;;;;;0.98;0.90;;;8.10;99.90;;;;;;5033903;28;20121;-66
2023/12/09 11:45:29;;;;;;;1.65;1.17;;;8.10;99.90;;;;;;5033620;28;20091;-66
2023/12/09 11:47:55;;;;;;;3.03;1.98;;;8.10;99.90;;;;;;5033825;28;20477;-66
2023/12/09 11:50:21;;;;;;;1.52;1.13;;;8.10;99.90;;;;;;5033778;28;20049;-70
2023/12/09 11:52:47;;;;;;;1.90;1.42;;;8.10;99.90;;;;;;5033726;28;20038;-68
2023/12/09 11:55:16;;;;;;;1.58;1.00;;;8.20;99.90;;;;;;5033680;28;20504;-66
2023/12/09 11:57:42;;;;;;;1.63;1.23;;;8.20;99.90;;;;;;5032506;28;20091;-66
2023/12/09 12:00:14;;;;;;;1.20;1.10;;;8.20;99.90;;;;;;5033642;28;20073;-65
2023/12/09 12:02:43;;;;;;;1.85;1.15;;;8.20;99.90;;;;;;5031888;28;20386;-65
2023/12/09 12:05:09;;;;;;;1.88;1.38;;;8.20;99.90;;;;;;5033077;28;20033;-65
2023/12/09 12:07:39;;;;;;;1.77;1.27;;;8.20;99.90;;;;;;5033350;28;20468;-65
2023/12/09 12:10:09;;;;;;;2.90;1.25;;;8.20;99.90;;;;;;5032155;28;20041;-66
2023/12/09 12:12:38;;;;;;;2.20;1.27;;;8.20;99.90;;;;;;5033201;28;20401;-67
2023/12/09 12:15:04;;;;;;;2.33;1.50;;;8.20;99.90;;;;;;5033111;28;20041;-67
2023/12/09 12:17:38;;;;;;;3.08;1.30;;;8.20;99.90;;;;;;5032608;28;20186;-66
2023/12/09 12:20:10;;;;;;;1.10;1.00;;;8.20;99.90;;;;;;5033094;28;20397;-66
2023/12/09 12:22:35;;;;;;;1.42;1.13;;;8.20;99.90;;;;;;5032962;28;20064;-65
2023/12/09 12:25:01;;;;;;;1.27;0.95;;;8.10;99.90;;;;;;5032923;28;20037;-66
2023/12/09 12:27:27;;;;;;;1.42;1.20;;;8.20;99.90;;;;;;5032938;28;20113;-66
2023/12/09 12:29:55;;;;;;;2.20;1.27;;;8.10;99.90;;;;;;5032915;28;20075;-66
2023/12/09 12:32:20;;;;;;;2.45;1.35;;;8.10;99.90;;;;;;5032628;28;20436;-66
2023/12/09 12:34:46;;;;;;;1.38;1.05;;;8.20;99.90;;;;;;5032725;28;20045;-65
2023/12/09 12:37:12;;;;;;;1.42;0.95;;;8.20;99.90;;;;;;5032889;28;20489;-66
2023/12/09 12:39:38;;;;;;;2.42;1.15;;;8.20;99.90;;;;;;5032546;28;20046;-65
2023/12/09 12:42:05;;;;;;;1.58;1.05;;;8.20;99.90;;;;;;5032801;28;20485;-66
2023/12/09 12:44:31;;;;;;;1.50;1.17;;;8.10;99.90;;;;;;5032415;28;20067;-66
2023/12/09 12:46:57;;;;;;;2.63;1.38;;;8.20;99.90;;;;;;5032694;28;20041;-66
2023/12/09 12:49:23;;;;;;;1.55;1.15;;;8.20;99.90;;;;;;5032532;28;20045;-65
2023/12/09 12:51:50;;;;;;;1.35;0.90;;;8.20;99.90;;;;;;5032679;28;20477;-65
2023/12/09 12:54:16;;;;;;;1.33;1.00;;;8.20;99.90;;;;;;5032638;28;20405;-65